Airfield :
LOGIN :

Register | Disclaimer

   EN    FR    IT 

 










Legend :    VFR   Marginal VFR   IFR   Intensive IFR   Very Intensive IFR
Visi :
Ceiling :
>= 8 km
>= 3000ft
5 to 8 km
1000 to 3000 ft
1500m to 5 km
500 to 1000 ft
800 to 1500m
200 to 500 ft
< 800m
< 200 ft
Symbols :   Thunderstorms  Fog  Heavy snow  Heavy precipitations  Wind > 20 kt
SIGMETs :     Misc.  Thunderstorms  Icing  Turbulence  Mountain Waves  Volcanic Ashes






- Airport Elevation : 124 ft
- IATA code : NHT


EGWU - RAF Northolt

CURRENT METAR :
  • 120050Z AUTO 25004KT 9999 // NCD 01/00 Q1003

EXPIRED METARs :
  • 112350Z 26005KT CAVOK 02/01 Q1003 NOSIG RMK BLU BLU
  • 112320Z 26006KT CAVOK 02/01 Q1003 NOSIG RMK BLU BLU
  • 112250Z 26005KT CAVOK 02/01 Q1003 NOSIG
  • 112220Z 26007KT CAVOK 02/01 Q1003 NOSIG RMK BLU BLU

TAF TAF EGWU
Valid from the 12 at 00:00 until the 12 at 18:00 UTC


112228Z 1200/1218 26006KT CAVOK
PROB30
TEMPO 1202/1208 5000 BR SCT004
BECMG 1210/1212 BKN010
TEMPO 1210/1218 7000 -RA
PROB40
TEMPO 1212/1218 18015G25KT 4000 RA SCT006



MET'MAP, your aeronautical weather chart ! - Copyright ORBIFLY December 2007 - Disclaimer

ORBIFLY MET'MAP TEAM :

Programming & Development : Alexandra Zaïnal
Concept & original design : Baudouin d'Aumeries
Assistance for programming : Marc-Olivier Méhu
Technical & hardware support : Manuel Goepfert

Contact : metmap@orbifly.com




SOURCES & CREDITS :

   NOAA